Time;durP1;ratioP1;P1;durP2;ratioP2;P2;SDS_P1;SDS_P2;PMS_P1;PMS_P2;Temp;Humidity;BMP_temperature;BMP_pressure;BME280_temperature;BME280_humidity;BME280_pressure;Samples;Min_cycle;Max_cycle;Signal;HPM_P1;HPM_P2
2021/04/03 00:00:35;;;;;;;15.80;10.30;;;;;;;4.70;67.60;99868.04;1739731;80;21178;-41
2021/04/03 00:03:04;;;;;;;17.15;11.38;;;;;;;4.64;67.79;99872.75;1738718;81;21589;-40
2021/04/03 00:05:32;;;;;;;14.55;10.15;;;;;;;4.57;67.87;99877.44;1740249;81;21142;-41
2021/04/03 00:08:03;;;;;;;14.98;10.35;;;;;;;4.53;67.93;99873.20;1738942;81;21579;-41
2021/04/03 00:10:46;;;;;;;12.60;9.43;;;;;;;4.51;68.15;99871.08;1742461;81;21582;-40
2021/04/03 00:13:14;;;;;;;16.20;9.98;;;;;;;4.53;68.34;99874.52;1738619;81;21714;-40
2021/04/03 00:15:42;;;;;;;16.60;9.98;;;;;;;4.54;68.28;99868.33;1738752;81;21587;-40
2021/04/03 00:18:12;;;;;;;13.93;9.65;;;;;;;4.55;68.26;99869.56;1734710;82;21162;-40
2021/04/03 00:20:41;;;;;;;15.20;9.60;;;;;;;4.55;68.04;99869.56;1735487;81;21166;-40
2021/04/03 00:23:09;;;;;;;13.50;9.03;;;;;;;4.52;67.86;99874.98;1734728;81;21138;-40
2021/04/03 00:25:37;;;;;;;13.90;9.48;;;;;;;4.52;68.04;99871.02;1705053;82;21194;-40
2021/04/03 00:28:05;;;;;;;15.75;9.78;;;;;;;4.51;68.05;99867.11;1737707;81;21147;-39
2021/04/03 00:30:33;;;;;;;16.90;9.73;;;;;;;4.48;68.16;99868.11;1738118;80;21177;-40
2021/04/03 00:33:03;;;;;;;15.13;10.13;;;;;;;4.47;68.26;99864.23;1735809;81;21206;-40
2021/04/03 00:35:34;;;;;;;11.70;8.78;;;;;;;4.48;68.08;99870.75;1714630;82;21175;-43
2021/04/03 00:38:03;;;;;;;13.50;10.13;;;;;;;4.45;67.92;99872.67;1712729;82;21555;-43
2021/04/03 00:40:43;;;;;;;14.30;9.35;;;;;;;4.41;67.79;99874.60;1714569;82;21150;-41
2021/04/03 00:43:22;;;;;;;16.60;9.18;;;;;;;4.39;67.76;99875.12;1714921;82;21122;-40
2021/04/03 00:45:49;;;;;;;15.53;9.55;;;;;;;4.34;67.63;99875.31;1713557;82;21165;-39
2021/04/03 00:48:18;;;;;;;16.52;9.43;;;;;;;4.30;67.74;99876.82;1713479;82;21150;-41
2021/04/03 00:50:48;;;;;;;12.80;9.28;;;;;;;4.27;67.77;99876.95;1651978;85;21196;-42
2021/04/03 00:53:25;;;;;;;15.48;9.05;;;;;;;4.23;67.86;99875.36;1646552;85;21149;-41
2021/04/03 00:56:24;;;;;;;15.45;8.75;;;;;;;4.25;68.23;99873.05;1793506;78;23064;-40
2021/04/03 00:58:54;;;;;;;13.48;9.75;;;;;;;4.23;68.34;99876.20;1699394;82;21149;-40
2021/04/03 01:01:23;;;;;;;12.05;9.25;;;;;;;4.21;68.36;99870.16;1716757;82;21994;-39
2021/04/03 01:03:51;;;;;;;13.25;8.68;;;;;;;4.21;68.39;99872.80;1716622;82;21136;-39
2021/04/03 01:06:19;;;;;;;15.83;10.60;;;;;;;4.23;68.53;99874.04;1687518;82;21216;-39
2021/04/03 01:08:47;;;;;;;16.75;9.73;;;;;;;4.23;68.67;99870.93;1708853;81;21161;-40
2021/04/03 01:11:15;;;;;;;14.87;11.00;;;;;;;4.25;68.68;99877.01;1693507;83;21176;-40
2021/04/03 01:14:12;;;;;;;16.07;9.83;;;;;;;4.26;68.68;99877.42;1710727;82;21822;-38
2021/04/03 01:16:48;;;;;;;13.58;9.63;;;;;;;4.26;68.56;99877.42;1657008;84;21770;-41
2021/04/03 01:19:37;;;;;;;13.48;8.80;;;;;;;4.24;68.35;99880.59;1650100;84;21157;-40
2021/04/03 01:23:02;;;;;;;13.98;9.30;;;;;;;4.22;68.38;99881.57;1652962;85;21298;-39
2021/04/03 01:26:08;;;;;;;14.73;9.18;;;;;;;4.19;68.57;99883.02;1656506;84;21207;-43
2021/04/03 01:29:17;;;;;;;16.10;10.25;;;;;;;4.17;68.47;99877.80;1657011;84;21202;-42
2021/04/03 01:31:45;;;;;;;14.90;10.10;;;;;;;4.11;68.41;99878.92;1651637;85;21725;-39
2021/04/03 01:34:20;;;;;;;16.77;10.88;;;;;;;4.10;68.40;99878.97;1633173;85;21359;-39
2021/04/03 01:36:50;;;;;;;14.87;10.03;;;;;;;4.09;68.44;99883.39;1647164;85;21197;-39
2021/04/03 01:39:23;;;;;;;15.65;10.58;;;;;;;4.08;68.48;99876.41;1659340;85;21587;-37
2021/04/03 01:41:53;;;;;;;14.10;10.10;;;;;;;4.10;68.61;99877.65;1659849;84;21641;-37
2021/04/03 01:44:24;;;;;;;;;;;;;;;4.07;68.71;99878.63;1693615;83;21600;-40
2021/04/03 01:46:58;;;;;;;15.72;9.80;;;;;;;4.11;68.77;99878.92;1761428;79;22952;-40
2021/04/03 01:49:26;;;;;;;17.07;11.33;;;;;;;4.07;68.71;99890.52;1712280;80;21145;-41
2021/04/03 01:51:54;;;;;;;15.75;11.55;;;;;;;4.05;68.75;99892.34;1711251;80;21558;-40
2021/04/03 01:54:24;;;;;;;16.15;10.35;;;;;;;4.05;68.88;99891.03;1748761;80;21150;-40
2021/04/03 01:56:56;;;;;;;15.25;10.00;;;;;;;4.06;68.88;99890.59;1683336;83;21571;-40
2021/04/03 01:59:25;;;;;;;;;;;;;;;4.05;68.68;99891.49;1695290;82;21185;-39
2021/04/03 02:01:55;;;;;;;13.40;9.78;;;;;;;4.04;68.61;99888.47;1730691;80;20281;-40
2021/04/03 02:04:24;;;;;;;17.47;12.00;;;;;;;4.01;68.52;99888.14;1710383;82;21149;-40
2021/04/03 02:06:52;;;;;;;17.20;10.53;;;;;;;3.99;68.48;99884.70;1740821;80;21137;-40
2021/04/03 02:09:24;;;;;;;15.70;9.43;;;;;;;4.00;68.52;99885.55;1742232;80;21180;-40
2021/04/03 02:11:53;;;;;;;16.05;10.48;;;;;;;3.99;68.54;99878.09;1711294;82;21269;-40
2021/04/03 02:14:23;;;;;;;14.90;9.13;;;;;;;3.98;68.48;99881.67;1721343;82;21189;-40
2021/04/03 02:16:51;;;;;;;18.95;10.55;;;;;;;3.96;68.49;99874.73;1718467;80;21146;-40
2021/04/03 02:19:19;;;;;;;13.03;8.20;;;;;;;3.96;68.47;99879.55;1734600;80;21551;-39
2021/04/03 02:21:47;;;;;;;14.65;9.73;;;;;;;3.95;68.46;99874.33;1735683;80;21170;-41
2021/04/03 02:24:15;;;;;;;14.95;8.85;;;;;;;3.94;68.46;99870.83;1714383;80;21201;-40
2021/04/03 02:26:45;;;;;;;16.35;10.65;;;;;;;3.94;68.44;99869.52;1714047;82;21177;-40
2021/04/03 02:29:12;;;;;;;12.00;9.15;;;;;;;3.92;68.44;99862.58;1651922;85;21294;-39
2021/04/03 02:31:42;;;;;;;15.32;9.38;;;;;;;3.91;68.49;99863.05;1694982;82;21150;-40
2021/04/03 02:34:10;;;;;;;16.05;9.95;;;;;;;3.89;68.35;99863.56;1693033;82;21212;-40
2021/04/03 02:36:38;;;;;;;15.23;9.48;;;;;;;3.88;68.31;99871.06;1700112;82;21180;-40
2021/04/03 02:39:07;;;;;;;14.65;9.58;;;;;;;3.84;68.36;99871.66;1668661;84;21184;-41
2021/04/03 02:42:06;;;;;;;13.70;10.05;;;;;;;3.84;68.37;99872.13;1697994;82;21613;-39
2021/04/03 02:44:40;;;;;;;16.70;10.80;;;;;;;3.80;68.32;99870.52;1726810;80;21134;-40
2021/04/03 02:47:31;;;;;;;17.27;11.83;;;;;;;3.78;68.30;99875.88;1710568;81;21189;-41
2021/04/03 02:50:03;;;;;;;17.87;10.43;;;;;;;3.77;68.30;99878.09;1667842;84;21163;-45
2021/04/03 02:52:33;;;;;;;17.40;10.75;;;;;;;3.77;68.10;99878.09;1706647;82;21291;-40
2021/04/03 02:55:03;;;;;;;17.00;10.58;;;;;;;3.78;68.13;99873.67;1704715;82;21166;-41
2021/04/03 02:57:31;;;;;;;16.23;10.65;;;;;;;3.78;68.03;99872.36;1705563;82;21121;-43
2021/04/03 03:00:03;;;;;;;19.77;11.65;;;;;;;3.78;67.84;99879.84;1702206;82;21591;-39
2021/04/03 03:02:31;;;;;;;17.52;10.48;;;;;;;3.79;67.80;99872.31;1683903;82;21168;-40
2021/04/03 03:04:59;;;;;;;15.88;9.38;;;;;;;3.80;67.93;99872.69;1663140;84;21714;-42
2021/04/03 03:07:27;;;;;;;16.37;10.08;;;;;;;3.80;67.85;99873.16;1681400;84;21190;-41
2021/04/03 03:09:55;;;;;;;14.03;8.80;;;;;;;3.79;67.81;99876.73;1669938;84;21275;-41
2021/04/03 03:12:25;;;;;;;14.65;8.85;;;;;;;3.77;67.79;99876.78;1684531;84;21148;-41
2021/04/03 03:14:54;;;;;;;12.75;9.08;;;;;;;3.77;67.83;99875.93;1709856;84;21186;-41
2021/04/03 03:17:23;;;;;;;13.25;8.53;;;;;;;3.76;67.88;99876.39;1685173;84;21792;-40
2021/04/03 03:19:52;;;;;;;15.35;8.85;;;;;;;3.74;67.94;99869.00;1705823;84;21189;-40
2021/04/03 03:22:21;;;;;;;19.17;9.70;;;;;;;3.72;67.95;99873.47;1703930;82;21162;-41
2021/04/03 03:24:49;;;;;;;14.05;8.28;;;;;;;3.71;68.03;99874.40;1706669;84;21110;-41
2021/04/03 03:27:17;;;;;;;14.05;8.63;;;;;;;3.71;68.09;99872.23;1719654;82;21577;-42
2021/04/03 03:29:45;;;;;;;13.15;9.10;;;;;;;3.71;68.06;99871.77;1718389;80;21146;-41
2021/04/03 03:32:13;;;;;;;13.58;9.40;;;;;;;3.72;67.91;99868.19;1741216;80;21126;-40
2021/04/03 03:34:42;;;;;;;12.68;8.75;;;;;;;3.72;67.80;99864.23;1707838;82;21566;-42
2021/04/03 03:37:10;;;;;;;15.93;11.03;;;;;;;3.72;67.82;99863.39;1731292;80;21141;-42
2021/04/03 03:39:40;;;;;;;17.55;10.98;;;;;;;3.70;67.86;99860.80;1737620;80;21134;-43
2021/04/03 03:42:09;;;;;;;23.62;17.45;;;;;;;3.71;67.88;99866.48;1740873;80;21145;-41
2021/04/03 03:44:38;;;;;;;22.67;16.82;;;;;;;3.68;68.08;99859.56;1738700;80;21130;-39
2021/04/03 03:47:08;;;;;;;23.57;15.03;;;;;;;3.67;68.17;99860.92;1709363;82;21142;-41
2021/04/03 03:49:36;;;;;;;21.87;13.65;;;;;;;3.65;68.27;99859.69;1729687;81;21577;-41
2021/04/03 03:52:05;;;;;;;19.07;13.40;;;;;;;3.66;68.30;99861.39;1697310;83;21295;-41
2021/04/03 03:54:35;;;;;;;13.10;10.28;;;;;;;3.65;68.34;99862.33;1729617;81;21656;-44
2021/04/03 03:57:03;;;;;;;15.90;9.85;;;;;;;3.60;68.26;99866.92;1733102;81;21130;-39
2021/04/03 03:59:32;;;;;;;15.60;9.63;;;;;;;3.51;68.18;99865.95;1733752;82;21110;-39
2021/04/03 04:02:00;;;;;;;13.22;9.50;;;;;;;3.46;68.16;99867.45;1726230;80;21137;-39
2021/04/03 04:04:28;;;;;;;14.35;9.83;;;;;;;3.46;68.35;99863.95;1735224;81;21578;-41
2021/04/03 04:06:58;;;;;;;13.20;8.73;;;;;;;3.48;68.43;99870.03;1729541;80;21574;-40
2021/04/03 04:09:27;;;;;;;14.45;9.53;;;;;;;3.50;68.47;99869.95;1701701;82;21167;-41
2021/04/03 04:12:04;;;;;;;13.03;8.35;;;;;;;3.50;68.47;99876.08;1710721;82;21094;-41
2021/04/03 04:14:36;;;;;;;13.65;9.05;;;;;;;3.50;68.53;99873.45;1704224;81;21130;-41
2021/04/03 04:17:04;;;;;;;13.40;7.92;;;;;;;3.52;68.60;99876.89;1725893;81;21142;-41
2021/04/03 04:19:34;;;;;;;13.20;9.93;;;;;;;3.52;68.46;99875.57;1727252;80;21145;-42
2021/04/03 04:22:03;;;;;;;14.15;8.33;;;;;;;3.53;68.35;99883.90;1730634;81;21146;-41
2021/04/03 04:24:31;;;;;;;14.43;8.43;;;;;;;3.52;68.30;99878.67;1733275;80;21134;-40
2021/04/03 04:26:59;;;;;;;12.05;7.00;;;;;;;3.53;68.18;99882.58;1731060;80;21142;-43
2021/04/03 04:29:27;;;;;;;10.05;6.60;;;;;;;3.55;67.98;99887.77;1732027;80;21145;-40
2021/04/03 04:31:56;;;;;;;9.85;7.10;;;;;;;3.56;67.69;99881.60;1733830;82;21150;-41
2021/04/03 04:34:25;;;;;;;11.10;6.60;;;;;;;3.57;67.45;99884.16;1729877;81;21157;-41
2021/04/03 04:36:55;;;;;;;10.43;6.40;;;;;;;3.59;67.27;99882.33;1727161;81;21130;-41
2021/04/03 04:39:25;;;;;;;9.78;6.55;;;;;;;3.63;67.15;99887.04;1733165;81;21142;-42
2021/04/03 04:41:54;;;;;;;10.00;7.50;;;;;;;3.66;67.06;99883.80;1728789;80;21146;-40
2021/04/03 04:44:22;;;;;;;8.93;5.97;;;;;;;3.72;66.93;99885.34;1702182;82;21146;-40
2021/04/03 04:46:50;;;;;;;9.30;6.20;;;;;;;3.77;66.74;99874.14;1729667;81;21197;-39
2021/04/03 04:49:18;;;;;;;9.35;6.22;;;;;;;3.82;66.58;99877.45;1721545;81;21150;-41
2021/04/03 04:51:47;;;;;;;8.10;5.85;;;;;;;3.88;66.44;99877.66;1730348;81;21127;-43
2021/04/03 04:54:16;;;;;;;10.60;6.08;;;;;;;3.93;66.23;99878.80;1728563;81;21795;-42
2021/04/03 04:56:46;;;;;;;12.63;5.95;;;;;;;3.98;66.02;99881.67;1718657;82;21118;-42
2021/04/03 04:59:16;;;;;;;6.90;4.92;;;;;;;4.01;65.85;99877.58;1728392;81;21142;-40
2021/04/03 05:01:46;;;;;;;8.58;5.78;;;;;;;4.06;65.56;99880.89;1722606;81;21542;-40
2021/04/03 05:04:15;;;;;;;9.55;6.65;;;;;;;4.10;65.50;99878.50;1722687;81;21292;-41
2021/04/03 05:06:43;;;;;;;7.97;5.08;;;;;;;4.14;65.28;99877.94;1731919;81;21952;-42
2021/04/03 05:09:11;;;;;;;6.47;4.72;;;;;;;4.19;65.17;99886.98;1724112;81;21170;-43
2021/04/03 05:11:42;;;;;;;8.03;5.47;;;;;;;4.24;65.07;99888.97;1702156;82;21130;-43
2021/04/03 05:14:10;;;;;;;7.97;5.10;;;;;;;4.27;64.87;99890.16;1720595;81;21356;-41
2021/04/03 05:16:38;;;;;;;10.90;5.95;;;;;;;4.30;64.64;99886.91;1726095;81;21666;-41
2021/04/03 05:19:05;;;;;;;8.55;5.25;;;;;;;4.34;64.67;99892.94;1726849;82;21519;-44
2021/04/03 05:21:33;;;;;;;6.87;4.87;;;;;;;4.36;64.40;99895.06;1720241;81;21183;-42
2021/04/03 05:24:01;;;;;;;10.88;6.45;;;;;;;4.42;64.35;99892.15;1721646;81;21137;-41
2021/04/03 05:26:28;;;;;;;9.40;6.12;;;;;;;4.46;64.10;99895.50;1722327;81;21154;-40
2021/04/03 05:28:56;;;;;;;8.53;5.87;;;;;;;4.47;64.15;99891.48;1725934;81;21150;-41
2021/04/03 05:31:26;;;;;;;9.05;6.12;;;;;;;4.44;63.71;99899.55;1719854;81;21308;-41
2021/04/03 05:33:54;;;;;;;11.18;5.50;;;;;;;4.38;63.74;99901.58;1724236;81;21150;-40
2021/04/03 05:36:23;;;;;;;8.13;5.42;;;;;;;4.35;64.10;99899.92;1719335;82;21446;-40
2021/04/03 05:38:50;;;;;;;10.85;6.53;;;;;;;4.37;64.11;99898.55;1721863;82;21182;-39
2021/04/03 05:41:18;;;;;;;12.95;6.53;;;;;;;4.41;64.35;99893.52;1722965;81;21288;-40
2021/04/03 05:43:47;;;;;;;9.95;6.35;;;;;;;4.42;64.76;99888.19;1717811;81;21590;-42
2021/04/03 05:46:19;;;;;;;10.03;5.92;;;;;;;4.46;64.95;99894.19;1721890;81;21126;-41
2021/04/03 05:48:47;;;;;;;8.48;6.55;;;;;;;4.51;64.92;99891.77;1720104;81;21727;-42
2021/04/03 05:51:15;;;;;;;13.28;5.65;;;;;;;4.56;64.39;99890.22;1698845;83;21158;-41
2021/04/03 05:53:44;;;;;;;13.10;6.75;;;;;;;4.61;64.28;99893.55;1682173;83;21602;-41
2021/04/03 05:56:14;;;;;;;8.90;6.05;;;;;;;4.65;64.24;99892.48;1728326;81;21596;-41
2021/04/03 05:58:44;;;;;;;;;;;;;;;4.69;63.93;99890.58;1731221;80;21609;-41
2021/04/03 06:01:12;;;;;;;9.60;6.40;;;;;;;4.69;64.09;99896.72;1728567;81;20167;-41
2021/04/03 06:03:40;;;;;;;11.60;7.33;;;;;;;4.73;64.13;99894.78;1734094;81;21146;-41
2021/04/03 06:06:07;;;;;;;10.05;6.35;;;;;;;4.78;63.63;99895.44;1695961;83;21184;-41
2021/04/03 06:08:36;;;;;;;9.33;5.62;;;;;;;4.83;63.65;99901.37;1667222;84;21198;-41
2021/04/03 06:11:20;;;;;;;8.43;6.15;;;;;;;4.90;63.70;99903.30;1669489;84;21297;-39
2021/04/03 06:14:03;;;;;;;10.35;6.65;;;;;;;4.98;63.30;99907.78;1726905;81;21874;-40
2021/04/03 06:16:39;;;;;;;8.10;5.75;;;;;;;5.04;63.15;99909.28;1728295;82;21594;-39
2021/04/03 06:19:25;;;;;;;10.32;6.70;;;;;;;5.10;62.93;99911.20;1728930;80;21123;-42
2021/04/03 06:21:57;;;;;;;10.90;7.12;;;;;;;5.19;62.82;99912.55;1732529;80;21130;-41
2021/04/03 06:24:36;;;;;;;11.55;6.47;;;;;;;5.30;62.55;99908.13;1727122;81;21134;-40
2021/04/03 06:27:09;;;;;;;9.10;5.92;;;;;;;5.38;62.54;99906.83;1728152;82;21181;-42
2021/04/03 06:29:48;;;;;;;9.83;6.22;;;;;;;5.48;61.62;99908.59;1726560;81;21169;-47
2021/04/03 06:32:33;;;;;;;9.05;5.90;;;;;;;5.57;61.46;99902.87;1726401;81;21142;-40
2021/04/03 06:35:08;;;;;;;10.50;6.58;;;;;;;5.64;61.28;99909.61;1728832;82;21110;-43
2021/04/03 06:37:37;;;;;;;9.25;6.00;;;;;;;5.74;60.28;99915.77;1728365;81;21532;-44
2021/04/03 06:40:11;;;;;;;8.95;5.83;;;;;;;5.79;59.90;99925.19;1728023;80;21299;-41
2021/04/03 06:42:55;;;;;;;8.38;6.03;;;;;;;5.83;60.02;99923.27;1729492;81;21166;-39
2021/04/03 06:45:32;;;;;;;9.93;5.62;;;;;;;5.91;59.79;99923.76;1732062;81;21140;-40
2021/04/03 06:48:06;;;;;;;9.23;5.75;;;;;;;6.00;59.77;99928.66;1719249;82;21158;-43
2021/04/03 06:50:44;;;;;;;8.78;5.50;;;;;;;6.09;59.71;99931.30;1717284;81;21106;-42
2021/04/03 06:53:15;;;;;;;9.20;5.72;;;;;;;6.18;59.34;99934.84;1719378;81;21136;-40
2021/04/03 06:55:47;;;;;;;6.75;5.10;;;;;;;6.29;59.01;99938.28;1729590;81;21469;-41
2021/04/03 06:58:14;;;;;;;9.08;6.03;;;;;;;6.37;59.31;99932.13;1722843;81;21143;-40
2021/04/03 07:00:44;;;;;;;9.20;6.05;;;;;;;6.47;59.08;99939.16;1723497;81;21133;-41
2021/04/03 07:03:23;;;;;;;7.90;5.62;;;;;;;6.57;58.91;99935.58;1702130;82;21119;-40
2021/04/03 07:05:51;;;;;;;9.60;6.42;;;;;;;6.65;59.11;99936.04;1722432;81;21721;-42
2021/04/03 07:08:20;;;;;;;10.45;6.37;;;;;;;6.77;58.87;99932.77;1723580;81;21429;-40
2021/04/03 07:10:50;;;;;;;6.00;4.60;;;;;;;6.85;57.32;99938.52;1720908;81;21146;-40
2021/04/03 07:13:19;;;;;;;8.83;5.97;;;;;;;6.88;57.63;99937.54;1705639;82;22083;-40
2021/04/03 07:15:46;;;;;;;7.08;4.83;;;;;;;6.95;58.05;99941.56;1724819;82;21182;-41
2021/04/03 07:18:14;;;;;;;7.80;5.58;;;;;;;7.04;57.99;99940.23;1694603;81;21628;-41
2021/04/03 07:20:42;;;;;;;9.05;5.40;;;;;;;7.14;57.82;99940.14;1724660;81;21142;-40
2021/04/03 07:23:11;;;;;;;7.05;4.55;;;;;;;7.25;57.68;99943.06;1732632;81;21625;-41
2021/04/03 07:25:41;;;;;;;6.10;4.42;;;;;;;7.35;57.32;99943.44;1723882;82;21359;-41
2021/04/03 07:28:08;;;;;;;6.50;4.72;;;;;;;7.45;57.25;99947.78;1719888;82;21155;-41
2021/04/03 07:30:41;;;;;;;6.37;4.55;;;;;;;7.55;56.42;99951.66;1721470;81;21399;-42
2021/04/03 07:33:18;;;;;;;8.45;3.87;;;;;;;7.66;56.20;99947.96;1719930;82;21146;-41
2021/04/03 07:35:58;;;;;;;7.00;4.55;;;;;;;7.75;55.36;99950.09;1720360;81;21935;-44
2021/04/03 07:38:37;;;;;;;7.97;3.95;;;;;;;7.85;54.57;99953.09;1708813;81;21146;-42
2021/04/03 07:41:16;;;;;;;5.90;3.60;;;;;;;7.93;54.27;99958.83;1726117;81;21549;-40
2021/04/03 07:43:47;;;;;;;4.65;3.52;;;;;;;8.03;53.23;99962.68;1725130;81;21147;-41
2021/04/03 07:46:23;;;;;;;4.70;2.80;;;;;;;8.11;51.83;99964.05;1723412;81;21442;-41
2021/04/03 07:48:54;;;;;;;6.35;3.45;;;;;;;8.17;52.07;99965.05;1720007;81;21146;-43
2021/04/03 07:51:34;;;;;;;5.83;3.77;;;;;;;8.24;52.77;99959.30;1724062;82;21142;-46
2021/04/03 07:54:03;;;;;;;8.60;4.60;;;;;;;8.30;52.08;99969.20;1723018;81;21166;-42
2021/04/03 07:56:53;;;;;;;5.97;3.98;;;;;;;8.30;52.08;99969.20;1727456;81;21134;-43
2021/04/03 07:59:48;;;;;;;7.08;4.17;;;;;;;8.32;51.13;99968.16;1719928;81;21147;-44
2021/04/03 08:02:21;;;;;;;6.03;3.87;;;;;;;8.33;50.84;99967.20;1718226;81;21133;-44
2021/04/03 08:04:49;;;;;;;5.60;2.95;;;;;;;8.37;50.69;99969.23;1723842;81;21580;-44
2021/04/03 08:07:19;;;;;;;12.75;3.52;;;;;;;8.40;50.03;99972.59;1724410;81;21175;-43
2021/04/03 08:09:49;;;;;;;6.15;3.35;;;;;;;8.45;49.49;99977.16;1726106;81;21110;-42
2021/04/03 08:12:19;;;;;;;6.55;4.28;;;;;;;8.55;50.17;99979.30;1723219;81;21149;-43
2021/04/03 08:14:50;;;;;;;;;;;;;;;8.64;50.32;99980.95;1703634;81;21107;-44
2021/04/03 08:17:20;;;;;;;7.67;4.33;;;;;;;8.69;50.14;99984.66;1722507;81;20165;-45
2021/04/03 08:19:49;;;;;;;6.17;3.50;;;;;;;8.76;51.22;99988.67;1722208;81;21107;-42
2021/04/03 08:22:17;;;;;;;9.65;5.17;;;;;;;8.82;51.91;99984.34;1721147;81;21828;-42
2021/04/03 08:24:58;;;;;;;9.98;5.50;;;;;;;8.91;51.69;99986.91;1719866;81;21106;-44
2021/04/03 08:27:33;;;;;;;8.25;5.10;;;;;;;8.99;50.49;99987.78;1723680;82;21142;-42
2021/04/03 08:30:20;;;;;;;10.45;6.17;;;;;;;9.00;51.26;99982.86;1720990;81;21579;-41
2021/04/03 08:32:30;;;;;;;9.58;5.67;;;;;;;8.97;50.34;99965.29;1720249;81;21558;-42
2021/04/03 08:34:58;;;;;;;7.80;4.80;;;;;;;8.99;50.24;99959.38;1722190;81;21535;-41
2021/04/03 08:37:26;;;;;;;6.80;4.90;;;;;;;9.02;50.26;99965.87;1723955;81;21141;-41
2021/04/03 08:39:53;;;;;;;8.90;3.95;;;;;;;9.05;50.68;99972.80;1723388;82;21305;-44
2021/04/03 08:42:21;;;;;;;5.87;3.52;;;;;;;9.02;47.64;99968.98;1725016;81;21158;-41
2021/04/03 08:44:49;;;;;;;4.60;3.17;;;;;;;9.02;47.64;99968.98;1719994;81;21149;-43
2021/04/03 08:47:18;;;;;;;4.78;2.98;;;;;;;9.00;45.17;99962.92;1723570;82;21140;-43
2021/04/03 08:49:47;;;;;;;5.40;3.25;;;;;;;9.00;45.17;99962.92;1722414;81;21173;-44
2021/04/03 08:52:14;;;;;;;5.33;2.72;;;;;;;9.06;46.74;99962.05;1741444;80;21161;-43
2021/04/03 08:54:44;;;;;;;3.83;2.37;;;;;;;9.13;44.53;99959.05;1735845;80;21152;-41
2021/04/03 08:57:28;;;;;;;4.62;2.90;;;;;;;9.18;42.52;99950.30;1740062;80;21181;-40
2021/04/03 09:00:00;;;;;;;4.12;2.58;;;;;;;9.22;43.11;99945.16;1749026;81;21660;-39
2021/04/03 09:02:28;;;;;;;5.45;3.00;;;;;;;9.30;43.52;99953.55;1741229;80;21128;-39
2021/04/03 09:04:56;;;;;;;4.90;2.47;;;;;;;9.37;43.23;99958.84;1746319;80;21158;-42
2021/04/03 09:07:35;;;;;;;6.45;2.75;;;;;;;9.45;42.05;99954.38;1740267;80;21161;-41
2021/04/03 09:10:21;;;;;;;5.05;2.40;;;;;;;9.45;42.05;99954.38;1742730;81;21122;-43
2021/04/03 09:12:49;;;;;;;3.22;1.85;;;;;;;9.47;42.06;99956.00;1749706;80;21134;-42
2021/04/03 09:15:27;;;;;;;5.58;2.50;;;;;;;9.41;39.48;99963.05;1744289;81;21529;-43
2021/04/03 09:17:57;;;;;;;4.58;2.77;;;;;;;9.38;40.51;99961.91;1743036;80;21138;-41
2021/04/03 09:20:28;;;;;;;;;;;;;;;9.39;41.33;99959.61;1750468;80;21126;-41
2021/04/03 09:23:05;;;;;;;5.40;3.42;;;;;;;9.41;40.34;99959.05;1743559;80;20149;-46
2021/04/03 09:25:32;;;;;;;4.95;3.10;;;;;;;9.42;40.61;99959.91;1741532;80;21711;-46
2021/04/03 09:28:15;;;;;;;4.47;3.02;;;;;;;9.45;41.39;99961.92;1745794;80;21141;-46
2021/04/03 09:30:44;;;;;;;4.05;2.55;;;;;;;9.49;42.15;99967.89;1741088;80;21149;-44
2021/04/03 09:33:23;;;;;;;9.65;2.65;;;;;;;9.51;41.31;99964.19;1742562;80;21133;-41
2021/04/03 09:35:52;;;;;;;2.37;1.40;;;;;;;9.60;41.25;99964.10;1739046;80;21141;-41
2021/04/03 09:38:33;;;;;;;2.80;1.72;;;;;;;9.71;40.94;99958.95;1742020;80;21153;-38
2021/04/03 09:41:23;;;;;;;7.10;3.12;;;;;;;9.81;39.94;99960.55;1737960;81;21168;-40
2021/04/03 09:43:52;;;;;;;3.33;1.98;;;;;;;9.90;39.45;99959.98;1745919;80;21165;-45
2021/04/03 09:46:20;;;;;;;2.80;1.40;;;;;;;9.94;38.34;99960.14;1748997;80;21114;-45
2021/04/03 09:48:50;;;;;;;4.47;1.72;;;;;;;9.99;38.22;99959.85;1736973;80;21642;-45
2021/04/03 09:51:17;;;;;;;4.10;1.77;;;;;;;10.05;38.00;99962.59;1727226;81;21946;-45
2021/04/03 09:53:47;;;;;;;3.87;2.05;;;;;;;10.12;38.02;99963.91;1722752;81;21154;-45
2021/04/03 09:56:16;;;;;;;1.82;1.30;;;;;;;10.18;37.89;99965.71;1723587;81;21146;-40
2021/04/03 09:58:44;;;;;;;2.80;1.67;;;;;;;10.24;37.26;99966.27;1730238;82;21131;-41
2021/04/03 10:01:12;;;;;;;3.20;2.00;;;;;;;10.26;37.55;99963.87;1725259;81;21170;-42
2021/04/03 10:03:42;;;;;;;4.55;1.87;;;;;;;10.24;36.84;99963.12;1705505;82;21122;-41
2021/04/03 10:06:10;;;;;;;3.90;1.85;;;;;;;10.26;37.59;99967.03;1722140;81;21610;-40
2021/04/03 10:08:38;;;;;;;2.77;1.70;;;;;;;10.27;37.40;99962.91;1721679;81;21175;-39
2021/04/03 10:11:07;;;;;;;3.22;1.57;;;;;;;10.31;37.04;99956.95;1724290;81;21107;-39
2021/04/03 10:13:35;;;;;;;3.62;2.00;;;;;;;10.34;37.00;99966.92;1721842;82;21142;-43
2021/04/03 10:16:11;;;;;;;2.90;1.77;;;;;;;10.35;37.53;99965.95;1718470;82;21640;-42
2021/04/03 10:18:44;;;;;;;2.83;1.37;;;;;;;10.38;37.06;99966.23;1727599;81;21170;-41
2021/04/03 10:21:13;;;;;;;2.47;1.30;;;;;;;10.46;36.45;99974.60;1719347;81;21118;-43
2021/04/03 10:23:40;;;;;;;1.62;1.25;;;;;;;10.52;35.85;99973.34;1724495;81;21174;-42
2021/04/03 10:26:08;;;;;;;2.17;1.15;;;;;;;10.56;36.47;99973.03;1721309;82;21201;-42
2021/04/03 10:28:36;;;;;;;3.75;1.75;;;;;;;10.60;35.83;99977.67;1724936;81;21119;-40
2021/04/03 10:31:04;;;;;;;2.35;0.93;;;;;;;10.61;34.73;99967.40;1722297;81;22239;-41
2021/04/03 10:33:32;;;;;;;2.37;1.27;;;;;;;10.59;34.87;99972.83;1724068;81;21153;-41
2021/04/03 10:36:05;;;;;;;2.77;1.10;;;;;;;10.60;35.29;99972.34;1722914;81;21079;-41
2021/04/03 10:38:33;;;;;;;1.67;1.02;;;;;;;10.58;34.96;99964.46;1721081;81;21111;-42
2021/04/03 10:41:03;;;;;;;3.25;1.50;;;;;;;10.62;34.87;99967.77;1721487;81;21147;-41
2021/04/03 10:43:32;;;;;;;2.52;1.20;;;;;;;10.69;34.38;99957.55;1721469;81;21597;-41
2021/04/03 10:46:00;;;;;;;3.85;1.47;;;;;;;10.72;33.53;99958.67;1721179;81;21433;-43
2021/04/03 10:48:28;;;;;;;2.15;1.70;;;;;;;10.72;33.57;99959.52;1723613;80;21591;-41
2021/04/03 10:50:57;;;;;;;3.22;1.27;;;;;;;10.70;34.57;99961.44;1733539;80;22140;-42
2021/04/03 10:53:25;;;;;;;2.83;1.77;;;;;;;10.69;33.51;99965.07;1736353;80;22117;-41
2021/04/03 10:55:52;;;;;;;2.22;1.35;;;;;;;10.68;33.61;99961.16;1734615;80;21119;-37
2021/04/03 10:58:20;;;;;;;2.55;1.10;;;;;;;10.70;33.39;99961.92;1735805;80;21153;-42
2021/04/03 11:00:48;;;;;;;2.67;1.42;;;;;;;10.69;32.57;99954.41;1735213;82;21150;-41
2021/04/03 11:03:16;;;;;;;3.60;2.15;;;;;;;10.72;33.16;99956.01;1739081;80;21434;-39
2021/04/03 11:05:43;;;;;;;2.87;1.10;;;;;;;10.80;33.58;99956.34;1733283;82;21182;-40
2021/04/03 11:08:11;;;;;;;1.47;1.00;;;;;;;10.84;32.32;99951.19;1737293;80;21137;-41
2021/04/03 11:10:39;;;;;;;1.50;0.90;;;;;;;10.80;31.62;99957.19;1738063;80;21466;-42
2021/04/03 11:13:06;;;;;;;1.77;1.20;;;;;;;10.75;30.80;99957.98;1738262;80;21196;-40
2021/04/03 11:15:34;;;;;;;2.72;1.25;;;;;;;10.70;31.57;99956.09;1740408;80;21169;-46
2021/04/03 11:18:02;;;;;;;2.45;1.57;;;;;;;10.71;31.50;99950.28;1732185;82;21134;-46
2021/04/03 11:20:31;;;;;;;4.00;2.00;;;;;;;10.74;31.53;99950.95;1736216;80;21150;-43
2021/04/03 11:22:59;;;;;;;1.60;0.90;;;;;;;10.80;30.34;99948.34;1738120;80;21129;-44
2021/04/03 11:25:26;;;;;;;3.30;1.05;;;;;;;10.87;31.14;99948.30;1736546;82;21180;-44
2021/04/03 11:27:54;;;;;;;1.90;0.93;;;;;;;10.95;30.82;99943.29;1731496;80;21161;-42
2021/04/03 11:30:23;;;;;;;3.30;1.55;;;;;;;11.02;31.65;99944.58;1734789;80;21157;-43
2021/04/03 11:32:52;;;;;;;1.90;1.00;;;;;;;11.12;31.35;99943.47;1733652;80;21105;-42
2021/04/03 11:35:21;;;;;;;2.37;1.52;;;;;;;11.17;30.82;99933.33;1735993;82;21149;-43
2021/04/03 11:37:49;;;;;;;8.90;1.35;;;;;;;11.16;30.30;99938.77;1733997;82;21581;-45
2021/04/03 11:40:17;;;;;;;2.30;1.52;;;;;;;11.10;31.19;99940.53;1740995;80;21094;-43
2021/04/03 11:42:47;;;;;;;2.05;1.35;;;;;;;11.08;29.30;99930.44;1744820;80;21599;-42
2021/04/03 11:45:16;;;;;;;1.72;1.10;;;;;;;11.07;30.33;99931.41;1740796;80;21922;-42
2021/04/03 11:47:44;;;;;;;2.62;1.10;;;;;;;11.07;30.09;99936.27;1736877;80;21133;-43
2021/04/03 11:50:13;;;;;;;1.95;1.30;;;;;;;11.08;28.30;99931.78;1730760;81;21166;-45
2021/04/03 11:52:41;;;;;;;2.17;1.32;;;;;;;11.04;29.36;99925.81;1725925;82;21558;-42
2021/04/03 11:55:09;;;;;;;1.60;1.20;;;;;;;11.09;29.71;99925.47;1723169;81;21146;-43